Search for airport 
image banner adimage banner ad
image banner ad

SVMI - Maiquetia / Intl Simon Bolivar Certificado - Intl

Located in Caracas, Venezuela

ICAO - SVMI, IATA - CCS

Data provided by Airmate  

General information

Coordinates: N10°36'4" W66°59'28"
Elevation is 234 feet MSL.
 
Rated:
View ratings: [VIEW]


View others Airports in Vargas

Operational data

Open for public use
Current time UTC:
Current local time:
Weather
METAR: SVMI 070100Z 09002KT 9999 BKN013 26/24 Q1013
TAF: TAF SVMI 062200Z 0700/0800 06009KT 9999 SCT016 TX32/0618Z TN24/0608Z BECMG 0700/0704 09005KT 8000 RA BKN016
View NOTAMs / SUP AIP / TFR affecting this airport [VIEW]
Communications frequencies: [VIEW]

Runways:

RWY identifierQFULength (ft)Width (ft)SurfaceLDA (ft)
0976°9930145ASP
27256°9465148
1088°11483148
28268°11483148

Airport contact information

Address: Caracas Venezuela

Satellite view of SVMI